sensor_id;sensor_type;location;lat;lon;timestamp;temperature;humidity
24664;DHT22;12791;50.992;13.788;2022-11-18T04:00:38;6.40;99.90
24664;DHT22;12791;50.992;13.788;2022-11-18T04:03:06;6.40;99.90
24664;DHT22;12791;50.992;13.788;2022-11-18T04:05:38;6.30;99.90
24664;DHT22;12791;50.992;13.788;2022-11-18T04:08:09;6.30;99.90
24664;DHT22;12791;50.992;13.788;2022-11-18T04:10:40;6.20;99.90
24664;DHT22;12791;50.992;13.788;2022-11-18T04:13:12;6.00;99.90
24664;DHT22;12791;50.992;13.788;2022-11-18T04:15:42;6.00;99.90
24664;DHT22;12791;50.992;13.788;2022-11-18T04:18:09;5.80;99.90
24664;DHT22;12791;50.992;13.788;2022-11-18T04:20:37;6.20;99.90
24664;DHT22;12791;50.992;13.788;2022-11-18T04:23:04;6.40;99.90
24664;DHT22;12791;50.992;13.788;2022-11-18T04:25:31;6.20;99.90
24664;DHT22;12791;50.992;13.788;2022-11-18T04:27:58;6.10;99.90
24664;DHT22;12791;50.992;13.788;2022-11-18T04:30:24;6.20;99.90
24664;DHT22;12791;50.992;13.788;2022-11-18T04:32:52;6.20;99.90
24664;DHT22;12791;50.992;13.788;2022-11-18T04:35:19;6.20;99.90
24664;DHT22;12791;50.992;13.788;2022-11-18T04:37:46;5.80;99.90
24664;DHT22;12791;50.992;13.788;2022-11-18T04:40:13;6.40;99.90
24664;DHT22;12791;50.992;13.788;2022-11-18T04:42:40;6.30;99.90
24664;DHT22;12791;50.992;13.788;2022-11-18T04:45:08;6.60;99.90
24664;DHT22;12791;50.992;13.788;2022-11-18T04:47:35;6.50;99.90
24664;DHT22;12791;50.992;13.788;2022-11-18T04:50:04;6.30;99.90
24664;DHT22;12791;50.992;13.788;2022-11-18T04:52:31;6.40;99.90
24664;DHT22;12791;50.992;13.788;2022-11-18T04:54:58;6.40;99.90
24664;DHT22;12791;50.992;13.788;2022-11-18T04:57:24;6.40;99.90
24664;DHT22;12791;50.992;13.788;2022-11-18T04:59:51;6.30;99.90
24664;DHT22;12791;50.992;13.788;2022-11-18T05:02:18;6.30;99.90
24664;DHT22;12791;50.992;13.788;2022-11-18T05:04:45;6.00;99.90
24664;DHT22;12791;50.992;13.788;2022-11-18T05:07:14;5.90;99.90
24664;DHT22;12791;50.992;13.788;2022-11-18T05:09:41;6.30;99.90
24664;DHT22;12791;50.992;13.788;2022-11-18T05:12:10;6.20;99.90
24664;DHT22;12791;50.992;13.788;2022-11-18T05:14:55;6.40;99.90
24664;DHT22;12791;50.992;13.788;2022-11-18T05:17:21;6.40;99.90
24664;DHT22;12791;50.992;13.788;2022-11-18T05:19:48;6.30;99.90
24664;DHT22;12791;50.992;13.788;2022-11-18T05:22:17;6.20;99.90
24664;DHT22;12791;50.992;13.788;2022-11-18T05:24:43;6.30;99.90
24664;DHT22;12791;50.992;13.788;2022-11-18T05:27:10;6.10;99.90
24664;DHT22;12791;50.992;13.788;2022-11-18T05:29:37;6.10;99.90
24664;DHT22;12791;50.992;13.788;2022-11-18T05:32:04;6.00;99.90
24664;DHT22;12791;50.992;13.788;2022-11-18T05:34:31;6.00;99.90
24664;DHT22;12791;50.992;13.788;2022-11-18T05:36:58;6.00;99.90
24664;DHT22;12791;50.992;13.788;2022-11-18T05:39:27;6.10;99.90
24664;DHT22;12791;50.992;13.788;2022-11-18T05:41:53;6.00;99.90
24664;DHT22;12791;50.992;13.788;2022-11-18T05:44:38;6.00;99.90
24664;DHT22;12791;50.992;13.788;2022-11-18T05:47:05;5.70;99.90
24664;DHT22;12791;50.992;13.788;2022-11-18T05:49:31;5.90;99.90
24664;DHT22;12791;50.992;13.788;2022-11-18T05:51:58;6.10;99.90
24664;DHT22;12791;50.992;13.788;2022-11-18T05:54:27;6.10;99.90
24664;DHT22;12791;50.992;13.788;2022-11-18T05:56:53;6.00;99.90
24664;DHT22;12791;50.992;13.788;2022-11-18T05:59:20;5.90;99.90
24664;DHT22;12791;50.992;13.788;2022-11-18T06:01:51;5.80;99.90
24664;DHT22;12791;50.992;13.788;2022-11-18T06:04:22;6.00;99.90
24664;DHT22;12791;50.992;13.788;2022-11-18T06:06:51;6.00;99.90
24664;DHT22;12791;50.992;13.788;2022-11-18T06:09:22;5.90;99.90
24664;DHT22;12791;50.992;13.788;2022-11-18T06:11:54;5.80;99.90
24664;DHT22;12791;50.992;13.788;2022-11-18T06:14:26;5.60;99.90
24664;DHT22;12791;50.992;13.788;2022-11-18T06:16:58;6.00;99.90
24664;DHT22;12791;50.992;13.788;2022-11-18T06:19:25;5.60;99.90
24664;DHT22;12791;50.992;13.788;2022-11-18T06:21:52;6.00;99.90
24664;DHT22;12791;50.992;13.788;2022-11-18T06:24:21;5.90;99.90
24664;DHT22;12791;50.992;13.788;2022-11-18T06:26:48;6.10;99.90
24664;DHT22;12791;50.992;13.788;2022-11-18T06:29:18;5.60;99.90
24664;DHT22;12791;50.992;13.788;2022-11-18T06:31:45;5.30;99.90
24664;DHT22;12791;50.992;13.788;2022-11-18T06:34:12;5.70;99.90
24664;DHT22;12791;50.992;13.788;2022-11-18T06:36:38;5.80;99.90
24664;DHT22;12791;50.992;13.788;2022-11-18T06:39:06;5.70;99.90
24664;DHT22;12791;50.992;13.788;2022-11-18T06:41:33;5.50;99.90
24664;DHT22;12791;50.992;13.788;2022-11-18T06:44:00;5.60;99.90
24664;DHT22;12791;50.992;13.788;2022-11-18T06:46:27;5.10;99.90
24664;DHT22;12791;50.992;13.788;2022-11-18T06:49:11;5.40;99.90
24664;DHT22;12791;50.992;13.788;2022-11-18T06:51:38;5.10;99.90
24664;DHT22;12791;50.992;13.788;2022-11-18T06:54:05;5.40;99.90
24664;DHT22;12791;50.992;13.788;2022-11-18T06:56:33;5.50;99.90
24664;DHT22;12791;50.992;13.788;2022-11-18T06:59:00;5.60;99.90
24664;DHT22;12791;50.992;13.788;2022-11-18T07:01:29;5.40;99.90
24664;DHT22;12791;50.992;13.788;2022-11-18T07:03:57;5.40;99.90
24664;DHT22;12791;50.992;13.788;2022-11-18T07:06:27;5.50;99.90
24664;DHT22;12791;50.992;13.788;2022-11-18T07:08:54;5.30;99.90
24664;DHT22;12791;50.992;13.788;2022-11-18T07:11:23;4.80;99.90
24664;DHT22;12791;50.992;13.788;2022-11-18T07:13:51;5.20;99.90
24664;DHT22;12791;50.992;13.788;2022-11-18T07:16:19;5.10;99.90
24664;DHT22;12791;50.992;13.788;2022-11-18T07:18:49;5.40;99.90
24664;DHT22;12791;50.992;13.788;2022-11-18T07:21:17;5.20;99.90
24664;DHT22;12791;50.992;13.788;2022-11-18T07:23:45;5.00;99.90
24664;DHT22;12791;50.992;13.788;2022-11-18T07:26:13;4.80;99.90
24664;DHT22;12791;50.992;13.788;2022-11-18T07:28:40;4.80;99.90
24664;DHT22;12791;50.992;13.788;2022-11-18T07:31:08;4.50;99.90
24664;DHT22;12791;50.992;13.788;2022-11-18T07:33:36;4.30;99.90
24664;DHT22;12791;50.992;13.788;2022-11-18T07:36:06;4.40;99.90
24664;DHT22;12791;50.992;13.788;2022-11-18T07:38:33;4.20;99.90
24664;DHT22;12791;50.992;13.788;2022-11-18T07:41:04;4.60;99.90
24664;DHT22;12791;50.992;13.788;2022-11-18T07:43:32;4.40;99.90
24664;DHT22;12791;50.992;13.788;2022-11-18T07:46:08;4.40;99.90
24664;DHT22;12791;50.992;13.788;2022-11-18T07:48:35;4.30;99.90
24664;DHT22;12791;50.992;13.788;2022-11-18T07:51:02;4.20;99.90
24664;DHT22;12791;50.992;13.788;2022-11-18T07:53:31;4.40;99.90
24664;DHT22;12791;50.992;13.788;2022-11-18T07:55:58;4.40;99.90
24664;DHT22;12791;50.992;13.788;2022-11-18T07:58:25;4.10;99.90
24664;DHT22;12791;50.992;13.788;2022-11-18T08:00:52;4.30;99.90
24664;DHT22;12791;50.992;13.788;2022-11-18T08:03:19;4.50;99.90
24664;DHT22;12791;50.992;13.788;2022-11-18T08:05:45;4.30;99.90
24664;DHT22;12791;50.992;13.788;2022-11-18T08:08:12;4.40;99.90
24664;DHT22;12791;50.992;13.788;2022-11-18T08:10:40;4.50;99.90
24664;DHT22;12791;50.992;13.788;2022-11-18T08:13:07;4.30;99.90
24664;DHT22;12791;50.992;13.788;2022-11-18T08:15:34;4.40;99.90
24664;DHT22;12791;50.992;13.788;2022-11-18T08:18:00;4.20;99.90
24664;DHT22;12791;50.992;13.788;2022-11-18T08:20:27;3.80;99.90
24664;DHT22;12791;50.992;13.788;2022-11-18T08:22:54;4.20;99.90
24664;DHT22;12791;50.992;13.788;2022-11-18T08:25:21;4.20;99.90
24664;DHT22;12791;50.992;13.788;2022-11-18T08:27:49;4.20;99.90
24664;DHT22;12791;50.992;13.788;2022-11-18T08:30:18;3.80;99.90
24664;DHT22;12791;50.992;13.788;2022-11-18T08:32:45;4.30;99.90
24664;DHT22;12791;50.992;13.788;2022-11-18T08:35:12;4.00;99.90
24664;DHT22;12791;50.992;13.788;2022-11-18T08:37:39;3.70;99.90
24664;DHT22;12791;50.992;13.788;2022-11-18T08:40:06;4.10;99.90
24664;DHT22;12791;50.992;13.788;2022-11-18T08:42:33;4.10;99.90
24664;DHT22;12791;50.992;13.788;2022-11-18T08:45:04;4.30;99.90
24664;DHT22;12791;50.992;13.788;2022-11-18T08:47:32;4.50;99.90
24664;DHT22;12791;50.992;13.788;2022-11-18T08:49:59;3.80;99.90
24664;DHT22;12791;50.992;13.788;2022-11-18T08:52:26;3.90;99.90
24664;DHT22;12791;50.992;13.788;2022-11-18T08:54:53;4.30;99.90
24664;DHT22;12791;50.992;13.788;2022-11-18T08:57:19;4.20;99.90
24664;DHT22;12791;50.992;13.788;2022-11-18T08:59:46;4.30;99.90
24664;DHT22;12791;50.992;13.788;2022-11-18T09:02:18;4.30;99.90
24664;DHT22;12791;50.992;13.788;2022-11-18T09:04:46;4.00;99.90
24664;DHT22;12791;50.992;13.788;2022-11-18T09:07:13;4.10;99.90
24664;DHT22;12791;50.992;13.788;2022-11-18T09:09:40;4.00;99.90
24664;DHT22;12791;50.992;13.788;2022-11-18T09:12:07;4.00;99.90
24664;DHT22;12791;50.992;13.788;2022-11-18T09:14:34;3.90;99.90
24664;DHT22;12791;50.992;13.788;2022-11-18T09:17:00;4.00;99.90
24664;DHT22;12791;50.992;13.788;2022-11-18T09:19:29;3.80;99.90
24664;DHT22;12791;50.992;13.788;2022-11-18T09:21:55;3.60;99.90
24664;DHT22;12791;50.992;13.788;2022-11-18T09:24:22;3.90;99.90
24664;DHT22;12791;50.992;13.788;2022-11-18T09:26:49;3.60;99.90
24664;DHT22;12791;50.992;13.788;2022-11-18T09:29:18;3.50;99.90
24664;DHT22;12791;50.992;13.788;2022-11-18T09:31:49;3.40;99.90
24664;DHT22;12791;50.992;13.788;2022-11-18T09:34:16;3.50;99.90
24664;DHT22;12791;50.992;13.788;2022-11-18T09:36:45;3.30;99.90
24664;DHT22;12791;50.992;13.788;2022-11-18T09:39:12;3.40;99.90
24664;DHT22;12791;50.992;13.788;2022-11-18T09:41:44;3.30;99.90
24664;DHT22;12791;50.992;13.788;2022-11-18T09:44:48;3.30;99.90
24664;DHT22;12791;50.992;13.788;2022-11-18T09:47:24;3.60;99.90
24664;DHT22;12791;50.992;13.788;2022-11-18T09:49:52;3.30;99.90
24664;DHT22;12791;50.992;13.788;2022-11-18T09:52:23;3.20;99.90
24664;DHT22;12791;50.992;13.788;2022-11-18T09:54:52;2.60;99.90
24664;DHT22;12791;50.992;13.788;2022-11-18T09:57:21;3.10;99.90
24664;DHT22;12791;50.992;13.788;2022-11-18T09:59:48;3.30;99.90
24664;DHT22;12791;50.992;13.788;2022-11-18T10:02:28;3.20;99.90
24664;DHT22;12791;50.992;13.788;2022-11-18T10:04:57;2.90;99.90
24664;DHT22;12791;50.992;13.788;2022-11-18T10:07:33;3.30;99.90
24664;DHT22;12791;50.992;13.788;2022-11-18T10:10:11;3.00;99.90
24664;DHT22;12791;50.992;13.788;2022-11-18T10:12:45;2.40;99.90
24664;DHT22;12791;50.992;13.788;2022-11-18T10:15:20;2.70;99.90
24664;DHT22;12791;50.992;13.788;2022-11-18T10:17:53;2.90;99.90
24664;DHT22;12791;50.992;13.788;2022-11-18T10:20:31;2.70;99.90
24664;DHT22;12791;50.992;13.788;2022-11-18T10:23:10;2.60;99.90
24664;DHT22;12791;50.992;13.788;2022-11-18T10:25:39;2.50;99.90
24664;DHT22;12791;50.992;13.788;2022-11-18T10:28:15;2.80;99.90
24664;DHT22;12791;50.992;13.788;2022-11-18T10:30:42;2.70;99.90
24664;DHT22;12791;50.992;13.788;2022-11-18T10:33:27;2.50;99.90
24664;DHT22;12791;50.992;13.788;2022-11-18T10:36:20;2.30;99.90
24664;DHT22;12791;50.992;13.788;2022-11-18T10:39:05;2.20;99.90
24664;DHT22;12791;50.992;13.788;2022-11-18T10:41:37;2.40;99.90
24664;DHT22;12791;50.992;13.788;2022-11-18T10:44:05;2.40;99.90
24664;DHT22;12791;50.992;13.788;2022-11-18T10:46:33;2.60;99.90
24664;DHT22;12791;50.992;13.788;2022-11-18T10:49:11;2.30;99.90
24664;DHT22;12791;50.992;13.788;2022-11-18T10:51:40;2.20;99.90
24664;DHT22;12791;50.992;13.788;2022-11-18T10:54:16;2.00;99.90
24664;DHT22;12791;50.992;13.788;2022-11-18T10:56:48;2.40;99.90
24664;DHT22;12791;50.992;13.788;2022-11-18T10:59:27;2.30;99.90
24664;DHT22;12791;50.992;13.788;2022-11-18T11:02:10;2.40;99.90
24664;DHT22;12791;50.992;13.788;2022-11-18T11:04:40;2.20;99.90
24664;DHT22;12791;50.992;13.788;2022-11-18T11:07:15;1.90;99.90
24664;DHT22;12791;50.992;13.788;2022-11-18T11:09:43;2.50;99.90
24664;DHT22;12791;50.992;13.788;2022-11-18T11:12:13;2.50;99.90
24664;DHT22;12791;50.992;13.788;2022-11-18T11:14:47;2.40;99.90
24664;DHT22;12791;50.992;13.788;2022-11-18T11:17:19;2.40;99.90
24664;DHT22;12791;50.992;13.788;2022-11-18T11:19:50;2.80;99.90
24664;DHT22;12791;50.992;13.788;2022-11-18T11:22:18;2.60;99.90
24664;DHT22;12791;50.992;13.788;2022-11-18T11:24:46;2.60;99.90
24664;DHT22;12791;50.992;13.788;2022-11-18T11:27:38;2.10;99.90
24664;DHT22;12791;50.992;13.788;2022-11-18T11:30:17;2.60;99.90
24664;DHT22;12791;50.992;13.788;2022-11-18T11:33:13;2.70;99.90
24664;DHT22;12791;50.992;13.788;2022-11-18T11:35:50;2.80;99.90
24664;DHT22;12791;50.992;13.788;2022-11-18T11:38:20;2.50;99.90
24664;DHT22;12791;50.992;13.788;2022-11-18T11:41:01;2.60;99.90
24664;DHT22;12791;50.992;13.788;2022-11-18T11:43:36;2.50;99.90
24664;DHT22;12791;50.992;13.788;2022-11-18T11:46:18;2.70;99.90
24664;DHT22;12791;50.992;13.788;2022-11-18T11:48:54;2.60;99.90
24664;DHT22;12791;50.992;13.788;2022-11-18T11:51:28;2.60;99.90
24664;DHT22;12791;50.992;13.788;2022-11-18T11:54:22;2.00;99.90
24664;DHT22;12791;50.992;13.788;2022-11-18T11:56:54;2.30;99.90
24664;DHT22;12791;50.992;13.788;2022-11-18T11:59:28;1.80;99.90
24664;DHT22;12791;50.992;13.788;2022-11-18T12:02:08;2.20;99.90
24664;DHT22;12791;50.992;13.788;2022-11-18T12:04:42;2.10;99.90
24664;DHT22;12791;50.992;13.788;2022-11-18T12:07:15;1.90;99.90
24664;DHT22;12791;50.992;13.788;2022-11-18T12:10:01;2.10;99.90
24664;DHT22;12791;50.992;13.788;2022-11-18T12:12:35;2.30;99.90
24664;DHT22;12791;50.992;13.788;2022-11-18T12:15:14;1.70;99.90
24664;DHT22;12791;50.992;13.788;2022-11-18T12:17:47;2.00;99.90
24664;DHT22;12791;50.992;13.788;2022-11-18T12:20:36;2.30;99.90
24664;DHT22;12791;50.992;13.788;2022-11-18T12:23:17;2.20;99.90
24664;DHT22;12791;50.992;13.788;2022-11-18T12:26:03;1.90;99.90
24664;DHT22;12791;50.992;13.788;2022-11-18T12:28:36;2.10;99.90
24664;DHT22;12791;50.992;13.788;2022-11-18T12:31:31;2.00;99.90
24664;DHT22;12791;50.992;13.788;2022-11-18T12:34:04;2.20;99.90
24664;DHT22;12791;50.992;13.788;2022-11-18T12:36:33;2.10;99.90
24664;DHT22;12791;50.992;13.788;2022-11-18T12:42:01;1.80;99.90
24664;DHT22;12791;50.992;13.788;2022-11-18T12:44:48;2.00;99.90
24664;DHT22;12791;50.992;13.788;2022-11-18T12:47:16;2.00;99.90
24664;DHT22;12791;50.992;13.788;2022-11-18T12:50:09;2.00;99.90
24664;DHT22;12791;50.992;13.788;2022-11-18T12:52:52;1.80;99.90
24664;DHT22;12791;50.992;13.788;2022-11-18T12:55:30;1.80;99.90
24664;DHT22;12791;50.992;13.788;2022-11-18T12:57:58;1.90;99.90
24664;DHT22;12791;50.992;13.788;2022-11-18T13:00:30;1.80;99.90
24664;DHT22;12791;50.992;13.788;2022-11-18T13:03:00;1.90;99.90
24664;DHT22;12791;50.992;13.788;2022-11-18T13:05:29;1.90;99.90
24664;DHT22;12791;50.992;13.788;2022-11-18T13:08:00;1.50;99.90
24664;DHT22;12791;50.992;13.788;2022-11-18T13:10:45;1.60;99.90
24664;DHT22;12791;50.992;13.788;2022-11-18T13:13:21;1.00;99.90
24664;DHT22;12791;50.992;13.788;2022-11-18T13:15:49;1.40;99.90
24664;DHT22;12791;50.992;13.788;2022-11-18T13:18:33;1.50;99.90
24664;DHT22;12791;50.992;13.788;2022-11-18T13:21:20;1.40;99.90
24664;DHT22;12791;50.992;13.788;2022-11-18T13:24:05;1.30;99.90
24664;DHT22;12791;50.992;13.788;2022-11-18T13:26:32;1.30;99.90
24664;DHT22;12791;50.992;13.788;2022-11-18T13:29:13;1.30;99.90
24664;DHT22;12791;50.992;13.788;2022-11-18T13:31:46;1.30;99.90
24664;DHT22;12791;50.992;13.788;2022-11-18T13:34:18;1.10;99.90
24664;DHT22;12791;50.992;13.788;2022-11-18T13:36:48;1.20;99.90
24664;DHT22;12791;50.992;13.788;2022-11-18T13:39:19;1.10;99.90
24664;DHT22;12791;50.992;13.788;2022-11-18T13:41:58;1.30;99.90
24664;DHT22;12791;50.992;13.788;2022-11-18T13:44:27;1.10;99.90
24664;DHT22;12791;50.992;13.788;2022-11-18T13:46:57;1.20;99.90
24664;DHT22;12791;50.992;13.788;2022-11-18T13:49:35;1.00;99.90
24664;DHT22;12791;50.992;13.788;2022-11-18T13:52:04;1.40;99.90
24664;DHT22;12791;50.992;13.788;2022-11-18T13:54:31;1.10;99.90
24664;DHT22;12791;50.992;13.788;2022-11-18T13:56:57;1.40;99.90
24664;DHT22;12791;50.992;13.788;2022-11-18T13:59:24;1.10;99.90
24664;DHT22;12791;50.992;13.788;2022-11-18T14:01:54;1.40;99.90
24664;DHT22;12791;50.992;13.788;2022-11-18T14:04:22;1.10;99.90
24664;DHT22;12791;50.992;13.788;2022-11-18T14:06:50;1.10;99.90
24664;DHT22;12791;50.992;13.788;2022-11-18T14:09:22;1.20;99.90
24664;DHT22;12791;50.992;13.788;2022-11-18T14:12:01;1.10;99.90
24664;DHT22;12791;50.992;13.788;2022-11-18T14:14:31;1.10;99.90
24664;DHT22;12791;50.992;13.788;2022-11-18T14:17:15;1.00;99.90
24664;DHT22;12791;50.992;13.788;2022-11-18T14:19:42;1.10;99.90
24664;DHT22;12791;50.992;13.788;2022-11-18T14:22:12;1.00;99.90
24664;DHT22;12791;50.992;13.788;2022-11-18T14:24:42;0.90;99.90
24664;DHT22;12791;50.992;13.788;2022-11-18T14:27:35;0.50;99.90
24664;DHT22;12791;50.992;13.788;2022-11-18T14:30:30;0.50;99.90
24664;DHT22;12791;50.992;13.788;2022-11-18T14:33:18;0.70;99.90
24664;DHT22;12791;50.992;13.788;2022-11-18T14:35:48;0.60;99.90
24664;DHT22;12791;50.992;13.788;2022-11-18T14:38:18;0.60;99.90
24664;DHT22;12791;50.992;13.788;2022-11-18T14:40:56;0.60;99.90
24664;DHT22;12791;50.992;13.788;2022-11-18T14:43:23;0.70;99.90
24664;DHT22;12791;50.992;13.788;2022-11-18T14:45:52;0.60;99.90
24664;DHT22;12791;50.992;13.788;2022-11-18T14:48:21;0.60;99.90
24664;DHT22;12791;50.992;13.788;2022-11-18T14:50:48;0.80;99.90
24664;DHT22;12791;50.992;13.788;2022-11-18T14:53:16;0.30;99.90
24664;DHT22;12791;50.992;13.788;2022-11-18T14:55:44;0.60;99.90
24664;DHT22;12791;50.992;13.788;2022-11-18T14:58:13;0.60;99.90
24664;DHT22;12791;50.992;13.788;2022-11-18T15:00:41;0.60;99.90
24664;DHT22;12791;50.992;13.788;2022-11-18T15:03:09;0.70;99.90
24664;DHT22;12791;50.992;13.788;2022-11-18T15:05:36;0.50;99.90
24664;DHT22;12791;50.992;13.788;2022-11-18T15:08:03;0.70;99.90
24664;DHT22;12791;50.992;13.788;2022-11-18T15:10:30;0.70;99.90
24664;DHT22;12791;50.992;13.788;2022-11-18T15:12:57;0.80;99.90
24664;DHT22;12791;50.992;13.788;2022-11-18T15:15:25;0.30;99.90
24664;DHT22;12791;50.992;13.788;2022-11-18T15:17:52;0.80;99.90
24664;DHT22;12791;50.992;13.788;2022-11-18T15:20:20;0.80;99.90
24664;DHT22;12791;50.992;13.788;2022-11-18T15:22:47;0.60;99.90
24664;DHT22;12791;50.992;13.788;2022-11-18T15:25:14;1.10;99.90
24664;DHT22;12791;50.992;13.788;2022-11-18T15:27:41;1.20;99.90
24664;DHT22;12791;50.992;13.788;2022-11-18T15:30:10;0.80;99.90
24664;DHT22;12791;50.992;13.788;2022-11-18T15:32:39;0.90;99.90
24664;DHT22;12791;50.992;13.788;2022-11-18T15:35:06;1.20;99.90
24664;DHT22;12791;50.992;13.788;2022-11-18T15:37:34;1.00;99.90
24664;DHT22;12791;50.992;13.788;2022-11-18T15:40:01;0.80;99.90
24664;DHT22;12791;50.992;13.788;2022-11-18T15:42:28;0.40;99.90
24664;DHT22;12791;50.992;13.788;2022-11-18T15:44:55;1.10;99.90
24664;DHT22;12791;50.992;13.788;2022-11-18T15:47:22;0.80;99.90
24664;DHT22;12791;50.992;13.788;2022-11-18T15:49:50;0.80;99.90
24664;DHT22;12791;50.992;13.788;2022-11-18T15:52:17;0.40;99.90
24664;DHT22;12791;50.992;13.788;2022-11-18T15:54:44;1.10;99.90
24664;DHT22;12791;50.992;13.788;2022-11-18T15:57:11;1.10;99.90
24664;DHT22;12791;50.992;13.788;2022-11-18T15:59:38;1.20;99.90
24664;DHT22;12791;50.992;13.788;2022-11-18T16:02:07;0.90;99.90
24664;DHT22;12791;50.992;13.788;2022-11-18T16:04:34;1.30;99.90
24664;DHT22;12791;50.992;13.788;2022-11-18T16:07:03;1.10;99.90
24664;DHT22;12791;50.992;13.788;2022-11-18T16:09:30;1.40;99.90
24664;DHT22;12791;50.992;13.788;2022-11-18T16:12:10;1.20;99.90
24664;DHT22;12791;50.992;13.788;2022-11-18T16:14:54;0.80;99.90
24664;DHT22;12791;50.992;13.788;2022-11-18T16:17:41;0.90;99.90
24664;DHT22;12791;50.992;13.788;2022-11-18T16:20:09;1.00;99.90
24664;DHT22;12791;50.992;13.788;2022-11-18T16:22:37;0.90;99.90
24664;DHT22;12791;50.992;13.788;2022-11-18T16:25:04;0.70;99.90
24664;DHT22;12791;50.992;13.788;2022-11-18T16:27:31;0.60;99.90
24664;DHT22;12791;50.992;13.788;2022-11-18T16:29:58;0.80;99.90
24664;DHT22;12791;50.992;13.788;2022-11-18T16:32:28;0.70;99.90
24664;DHT22;12791;50.992;13.788;2022-11-18T16:34:55;0.50;99.90
24664;DHT22;12791;50.992;13.788;2022-11-18T16:37:24;0.70;99.90
24664;DHT22;12791;50.992;13.788;2022-11-18T16:39:52;0.70;99.90
24664;DHT22;12791;50.992;13.788;2022-11-18T16:42:19;0.60;99.90
24664;DHT22;12791;50.992;13.788;2022-11-18T16:44:46;0.60;99.90
24664;DHT22;12791;50.992;13.788;2022-11-18T16:47:12;0.60;99.90
24664;DHT22;12791;50.992;13.788;2022-11-18T16:49:39;0.20;99.90
24664;DHT22;12791;50.992;13.788;2022-11-18T16:52:06;0.80;99.90
24664;DHT22;12791;50.992;13.788;2022-11-18T16:54:33;0.60;99.90
24664;DHT22;12791;50.992;13.788;2022-11-18T16:57:02;0.40;99.90
24664;DHT22;12791;50.992;13.788;2022-11-18T16:59:29;0.40;99.90
24664;DHT22;12791;50.992;13.788;2022-11-18T17:01:58;0.70;99.90
24664;DHT22;12791;50.992;13.788;2022-11-18T17:04:26;0.40;99.90
24664;DHT22;12791;50.992;13.788;2022-11-18T17:06:53;0.50;99.90
24664;DHT22;12791;50.992;13.788;2022-11-18T17:09:21;0.50;99.90
24664;DHT22;12791;50.992;13.788;2022-11-18T17:11:49;0.40;99.90
24664;DHT22;12791;50.992;13.788;2022-11-18T17:14:17;0.40;99.90
24664;DHT22;12791;50.992;13.788;2022-11-18T17:16:46;0.60;99.90
24664;DHT22;12791;50.992;13.788;2022-11-18T17:19:14;0.50;99.90
24664;DHT22;12791;50.992;13.788;2022-11-18T17:21:41;0.20;99.90
24664;DHT22;12791;50.992;13.788;2022-11-18T17:24:08;0.30;99.90
24664;DHT22;12791;50.992;13.788;2022-11-18T17:26:36;0.40;99.90
24664;DHT22;12791;50.992;13.788;2022-11-18T17:29:03;0.30;99.90
24664;DHT22;12791;50.992;13.788;2022-11-18T17:31:32;0.20;99.90
24664;DHT22;12791;50.992;13.788;2022-11-18T17:33:59;-0.30;99.90
24664;DHT22;12791;50.992;13.788;2022-11-18T17:36:26;0.20;99.90
24664;DHT22;12791;50.992;13.788;2022-11-18T17:38:54;0.40;99.90
24664;DHT22;12791;50.992;13.788;2022-11-18T17:41:23;0.20;99.90
24664;DHT22;12791;50.992;13.788;2022-11-18T17:44:09;0.50;99.90
24664;DHT22;12791;50.992;13.788;2022-11-18T17:46:38;0.10;99.90
24664;DHT22;12791;50.992;13.788;2022-11-18T17:49:06;0.30;99.90
24664;DHT22;12791;50.992;13.788;2022-11-18T17:51:36;0.20;99.90
24664;DHT22;12791;50.992;13.788;2022-11-18T17:54:03;0.20;99.90
24664;DHT22;12791;50.992;13.788;2022-11-18T17:56:30;0.20;99.90
24664;DHT22;12791;50.992;13.788;2022-11-18T17:58:57;0.50;99.90
24664;DHT22;12791;50.992;13.788;2022-11-18T18:01:24;0.50;99.90
24664;DHT22;12791;50.992;13.788;2022-11-18T18:03:52;0.30;99.90
24664;DHT22;12791;50.992;13.788;2022-11-18T18:06:19;0.30;99.90
24664;DHT22;12791;50.992;13.788;2022-11-18T18:08:46;0.20;99.90
24664;DHT22;12791;50.992;13.788;2022-11-18T18:11:14;-0.10;99.90
24664;DHT22;12791;50.992;13.788;2022-11-18T18:13:42;0.70;99.90
24664;DHT22;12791;50.992;13.788;2022-11-18T18:16:28;0.50;99.90
24664;DHT22;12791;50.992;13.788;2022-11-18T18:18:56;0.70;99.90
24664;DHT22;12791;50.992;13.788;2022-11-18T18:21:23;0.40;99.90
24664;DHT22;12791;50.992;13.788;2022-11-18T18:23:50;0.20;99.90
24664;DHT22;12791;50.992;13.788;2022-11-18T18:26:17;0.50;99.90
24664;DHT22;12791;50.992;13.788;2022-11-18T18:28:44;0.80;99.90
24664;DHT22;12791;50.992;13.788;2022-11-18T18:31:13;0.50;99.90
24664;DHT22;12791;50.992;13.788;2022-11-18T18:33:41;0.70;99.90
24664;DHT22;12791;50.992;13.788;2022-11-18T18:36:11;0.70;99.90
24664;DHT22;12791;50.992;13.788;2022-11-18T18:38:39;0.70;99.90
24664;DHT22;12791;50.992;13.788;2022-11-18T18:41:08;0.30;99.90
24664;DHT22;12791;50.992;13.788;2022-11-18T18:43:35;0.20;99.90
24664;DHT22;12791;50.992;13.788;2022-11-18T18:46:04;0.70;99.90
24664;DHT22;12791;50.992;13.788;2022-11-18T18:48:49;0.70;99.90
24664;DHT22;12791;50.992;13.788;2022-11-18T18:51:17;0.90;99.90
24664;DHT22;12791;50.992;13.788;2022-11-18T18:53:44;0.20;99.90
24664;DHT22;12791;50.992;13.788;2022-11-18T18:56:11;0.50;99.90
24664;DHT22;12791;50.992;13.788;2022-11-18T18:58:38;0.40;99.90
24664;DHT22;12791;50.992;13.788;2022-11-18T19:01:06;0.50;99.90
24664;DHT22;12791;50.992;13.788;2022-11-18T19:03:33;0.70;99.90
24664;DHT22;12791;50.992;13.788;2022-11-18T19:06:11;0.70;99.90
24664;DHT22;12791;50.992;13.788;2022-11-18T19:08:39;0.60;99.90
24664;DHT22;12791;50.992;13.788;2022-11-18T19:11:06;0.80;99.90
24664;DHT22;12791;50.992;13.788;2022-11-18T19:13:33;0.80;99.90
24664;DHT22;12791;50.992;13.788;2022-11-18T19:16:03;1.10;99.90
24664;DHT22;12791;50.992;13.788;2022-11-18T19:18:33;0.40;99.90
24664;DHT22;12791;50.992;13.788;2022-11-18T19:21:00;0.90;99.90
24664;DHT22;12791;50.992;13.788;2022-11-18T19:23:27;0.80;99.90
24664;DHT22;12791;50.992;13.788;2022-11-18T19:25:58;0.90;99.90
24664;DHT22;12791;50.992;13.788;2022-11-18T19:28:25;0.70;99.90
24664;DHT22;12791;50.992;13.788;2022-11-18T19:30:52;0.90;99.90
24664;DHT22;12791;50.992;13.788;2022-11-18T19:33:19;0.80;99.90
24664;DHT22;12791;50.992;13.788;2022-11-18T19:35:46;0.90;99.90
24664;DHT22;12791;50.992;13.788;2022-11-18T19:38:12;0.50;99.90
24664;DHT22;12791;50.992;13.788;2022-11-18T19:40:39;0.60;99.90
24664;DHT22;12791;50.992;13.788;2022-11-18T19:43:07;0.50;99.90
24664;DHT22;12791;50.992;13.788;2022-11-18T19:45:34;0.70;99.90
24664;DHT22;12791;50.992;13.788;2022-11-18T19:48:01;0.50;99.90
24664;DHT22;12791;50.992;13.788;2022-11-18T19:50:28;0.60;99.90
24664;DHT22;12791;50.992;13.788;2022-11-18T19:52:55;0.20;99.90